Time;durP1;ratioP1;P1;durP2;ratioP2;P2;SDS_P1;SDS_P2;PMS_P1;PMS_P2;Temp;Humidity;BMP_temperature;BMP_pressure;BME280_temperature;BME280_humidity;BME280_pressure;Samples;Min_cycle;Max_cycle;Signal;HPM_P1;HPM_P2
2023/12/28 00:02:20;;;;;;;7.85;3.50;;;5.90;60.50;;;;;;4851236;28;116626;-81
2023/12/28 00:04:47;;;;;;;6.22;3.20;;;5.90;60.60;;;;;;4868033;28;115909;-81
2023/12/28 00:07:15;;;;;;;6.30;3.10;;;5.90;60.50;;;;;;4836513;28;114515;-81
2023/12/28 00:09:42;;;;;;;7.35;4.00;;;5.90;60.40;;;;;;4869111;28;114559;-81
2023/12/28 00:12:09;;;;;;;6.95;3.28;;;5.80;60.30;;;;;;4867043;28;115335;-80
2023/12/28 00:14:36;;;;;;;6.82;3.97;;;5.90;60.30;;;;;;4851441;28;114723;-81
2023/12/28 00:17:04;;;;;;;6.35;3.30;;;5.80;60.30;;;;;;4851858;28;114410;-80
2023/12/28 00:19:31;;;;;;;6.60;3.92;;;5.90;60.40;;;;;;4836508;28;114548;-80
2023/12/28 00:21:59;;;;;;;8.73;3.97;;;5.90;60.50;;;;;;4851131;28;115113;-81
2023/12/28 00:24:28;;;;;;;9.95;4.32;;;5.90;60.50;;;;;;4851293;28;114646;-81
2023/12/28 00:26:58;;;;;;;6.47;4.03;;;5.90;60.60;;;;;;4836404;28;114315;-81
2023/12/28 00:29:28;;;;;;;9.40;4.22;;;5.80;60.70;;;;;;4869223;28;114352;-81
2023/12/28 00:31:56;;;;;;;4.82;3.22;;;5.80;60.70;;;;;;4867904;28;115510;-80
2023/12/28 00:34:23;;;;;;;7.68;3.80;;;5.80;60.80;;;;;;4850972;28;114577;-81
2023/12/28 00:36:50;;;;;;;7.05;3.78;;;5.90;60.90;;;;;;4835826;28;114587;-81
2023/12/28 00:39:18;;;;;;;7.22;3.70;;;5.80;61.10;;;;;;4868591;28;114200;-80
2023/12/28 00:41:45;;;;;;;6.68;3.28;;;5.80;61.10;;;;;;4867940;28;115112;-81
2023/12/28 00:44:12;;;;;;;8.70;4.28;;;5.80;61.10;;;;;;4867716;28;114600;-81
2023/12/28 00:46:40;;;;;;;5.75;3.85;;;5.90;61.20;;;;;;4836075;28;115082;-81
2023/12/28 00:49:08;;;;;;;7.78;4.13;;;5.90;61.30;;;;;;4851856;28;114424;-81
2023/12/28 00:51:36;;;;;;;9.95;5.55;;;5.90;61.50;;;;;;4819720;28;118297;-81
2023/12/28 00:54:04;;;;;;;9.10;4.95;;;5.90;61.60;;;;;;4867778;28;115078;-81
2023/12/28 00:56:32;;;;;;;7.80;4.65;;;5.90;61.70;;;;;;4865964;28;114488;-81
2023/12/28 00:59:01;;;;;;;10.52;5.32;;;5.90;61.70;;;;;;4851086;28;114598;-81
2023/12/28 01:01:30;;;;;;;7.38;4.22;;;5.90;61.90;;;;;;4867026;28;115494;-81
2023/12/28 01:03:58;;;;;;;7.82;4.47;;;5.90;62.00;;;;;;4850545;28;115114;-81
2023/12/28 01:06:28;;;;;;;11.25;4.65;;;5.90;62.10;;;;;;4850967;28;114657;-81
2023/12/28 01:08:56;;;;;;;8.57;4.70;;;5.90;62.10;;;;;;4868059;28;114149;-82
2023/12/28 01:11:23;;;;;;;8.43;4.93;;;5.90;62.30;;;;;;4867426;28;115613;-81
2023/12/28 01:13:53;;;;;;;9.02;5.05;;;5.90;62.30;;;;;;4850513;28;114675;-81
2023/12/28 01:16:20;;;;;;;6.00;3.40;;;5.90;62.40;;;;;;4859906;28;114611;-82
2023/12/28 01:18:48;;;;;;;10.02;4.78;;;5.90;62.50;;;;;;4836097;28;114390;-81
2023/12/28 01:21:15;;;;;;;8.48;4.93;;;5.90;62.60;;;;;;4818879;28;117136;-81
2023/12/28 01:23:43;;;;;;;8.88;5.22;;;5.90;62.70;;;;;;4867139;28;114575;-80
2023/12/28 01:26:17;;;;;;;8.68;5.47;;;5.90;62.70;;;;;;4866287;28;115130;-80
2023/12/28 01:28:44;;;;;;;9.18;4.93;;;5.90;62.90;;;;;;4835691;28;114318;-81
2023/12/28 01:31:11;;;;;;;7.68;4.53;;;5.80;62.80;;;;;;4850495;28;115018;-81
2023/12/28 01:33:39;;;;;;;7.88;4.35;;;5.90;62.90;;;;;;4849765;28;116496;-83
2023/12/28 01:36:21;;;;;;;9.93;5.10;;;5.90;62.90;;;;;;4868756;28;114338;-80
2023/12/28 01:38:48;;;;;;;8.55;5.00;;;5.90;63.10;;;;;;4853811;28;114747;-81
2023/12/28 01:41:16;;;;;;;9.98;5.03;;;5.90;63.10;;;;;;4819866;28;115717;-81
2023/12/28 01:43:43;;;;;;;9.55;5.22;;;5.90;63.10;;;;;;4835276;28;114632;-81
2023/12/28 01:46:18;;;;;;;9.85;4.72;;;5.90;63.10;;;;;;4850921;28;114694;-80
2023/12/28 01:48:48;;;;;;;8.20;5.07;;;5.90;63.10;;;;;;4851226;28;114374;-81
2023/12/28 01:51:17;;;;;;;10.02;5.25;;;5.90;63.20;;;;;;4848650;28;115242;-81
2023/12/28 01:53:44;;;;;;;9.27;4.97;;;5.90;63.10;;;;;;4834400;28;116049;-81
2023/12/28 01:56:12;;;;;;;11.77;4.93;;;5.90;63.10;;;;;;4835205;28;114422;-81
2023/12/28 01:58:44;;;;;;;9.35;5.22;;;6.00;63.40;;;;;;4834962;28;114570;-81
2023/12/28 02:01:11;;;;;;;9.10;4.80;;;6.00;63.30;;;;;;4834377;28;115585;-81
2023/12/28 02:03:39;;;;;;;8.93;5.53;;;6.00;63.40;;;;;;4818994;28;114877;-82
2023/12/28 02:06:07;;;;;;;9.55;5.55;;;6.00;63.40;;;;;;4850378;28;114757;-81
2023/12/28 02:08:34;;;;;;;12.77;5.75;;;6.00;63.50;;;;;;4849763;28;114516;-81
2023/12/28 02:11:01;;;;;;;10.15;5.10;;;6.00;63.50;;;;;;4866427;28;115002;-81
2023/12/28 02:13:31;;;;;;;8.25;4.35;;;6.10;63.40;;;;;;4850065;28;115099;-81
2023/12/28 02:16:06;;;;;;;9.10;5.32;;;6.00;63.40;;;;;;4863330;28;114468;-80
2023/12/28 02:18:43;;;;;;;9.98;4.97;;;6.10;63.50;;;;;;4809609;28;114604;-80
2023/12/28 02:21:12;;;;;;;8.73;5.90;;;6.10;63.50;;;;;;4860089;28;115170;-80
2023/12/28 02:23:39;;;;;;;10.18;5.47;;;6.20;63.50;;;;;;4868588;28;114777;-80
2023/12/28 02:26:06;;;;;;;10.55;4.60;;;6.20;63.60;;;;;;4849913;28;114619;-80
2023/12/28 02:28:34;;;;;;;9.88;5.60;;;6.20;63.50;;;;;;4866768;28;114366;-80
2023/12/28 02:31:01;;;;;;;10.48;5.45;;;6.20;63.50;;;;;;4865049;28;115228;-80
2023/12/28 02:33:41;;;;;;;9.15;5.43;;;6.20;63.50;;;;;;4834422;28;114585;-80
2023/12/28 02:36:11;;;;;;;10.80;5.20;;;6.20;63.60;;;;;;4834581;28;114242;-80
2023/12/28 02:38:39;;;;;;;8.55;5.10;;;6.20;63.50;;;;;;4834923;28;114410;-80
2023/12/28 02:41:06;;;;;;;8.02;4.90;;;6.30;63.50;;;;;;4833564;28;115212;-80
2023/12/28 02:43:34;;;;;;;9.32;5.40;;;6.20;63.50;;;;;;4849389;28;114749;-80
2023/12/28 02:46:02;;;;;;;11.05;5.55;;;6.30;63.50;;;;;;4818968;28;114617;-80
2023/12/28 02:48:30;;;;;;;10.88;6.18;;;6.30;63.40;;;;;;4850142;28;114535;-80
2023/12/28 02:50:57;;;;;;;7.95;5.45;;;6.30;63.50;;;;;;4849026;28;117802;-80
2023/12/28 02:53:25;;;;;;;9.23;5.28;;;6.30;63.50;;;;;;4866236;28;114568;-80
2023/12/28 02:55:52;;;;;;;9.07;4.85;;;6.30;63.50;;;;;;4849838;28;114562;-79
2023/12/28 02:58:19;;;;;;;12.00;5.57;;;6.40;63.50;;;;;;4849615;28;114509;-80
2023/12/28 03:00:48;;;;;;;8.23;5.30;;;6.40;63.50;;;;;;4865874;28;115750;-80
2023/12/28 03:03:16;;;;;;;9.63;5.20;;;6.40;63.60;;;;;;4848975;28;114673;-81
2023/12/28 03:05:43;;;;;;;11.10;5.60;;;6.40;63.60;;;;;;4866164;28;114267;-81
2023/12/28 03:08:11;;;;;;;8.98;5.63;;;6.40;63.70;;;;;;4849393;28;114448;-81
2023/12/28 03:10:39;;;;;;;9.77;5.80;;;6.40;63.70;;;;;;4864630;28;115005;-81
2023/12/28 03:13:06;;;;;;;9.80;6.13;;;6.40;63.70;;;;;;4864525;28;114675;-81
2023/12/28 03:15:35;;;;;;;12.60;6.78;;;6.40;63.70;;;;;;4865577;28;114363;-81
2023/12/28 03:18:02;;;;;;;10.00;5.72;;;6.40;63.90;;;;;;4866420;28;114489;-81
2023/12/28 03:20:32;;;;;;;10.75;5.65;;;6.40;63.90;;;;;;4852787;28;115818;-82
2023/12/28 03:23:00;;;;;;;9.93;5.70;;;6.40;64.00;;;;;;4860823;28;115082;-81
2023/12/28 03:25:27;;;;;;;8.57;5.53;;;6.40;64.10;;;;;;4869632;28;114787;-81
2023/12/28 03:27:54;;;;;;;8.10;5.07;;;6.40;64.00;;;;;;4869577;28;114523;-80
2023/12/28 03:30:22;;;;;;;8.00;4.70;;;6.40;64.00;;;;;;4867286;28;115047;-80
2023/12/28 03:32:50;;;;;;;9.27;5.68;;;6.40;64.00;;;;;;4867329;28;114612;-80
2023/12/28 03:35:18;;;;;;;9.75;5.75;;;6.50;64.00;;;;;;4869663;28;114599;-80
2023/12/28 03:37:45;;;;;;;9.43;5.47;;;6.50;64.00;;;;;;4852179;28;114533;-80
2023/12/28 03:40:13;;;;;;;10.23;4.88;;;6.50;64.00;;;;;;4852035;28;115116;-81
2023/12/28 03:42:42;;;;;;;12.15;6.15;;;6.40;64.10;;;;;;4868771;28;114831;-81
2023/12/28 03:45:12;;;;;;;10.32;5.70;;;6.50;64.20;;;;;;4836881;28;114687;-80
2023/12/28 03:47:40;;;;;;;9.20;5.57;;;6.40;64.20;;;;;;4870087;28;114217;-81
2023/12/28 03:50:08;;;;;;;9.10;5.30;;;6.40;64.10;;;;;;4851817;28;115175;-80
2023/12/28 03:52:35;;;;;;;8.68;5.00;;;6.50;64.10;;;;;;4867268;28;114974;-81
2023/12/28 03:55:03;;;;;;;9.95;6.20;;;6.40;64.10;;;;;;4851570;28;114579;-81
2023/12/28 03:57:30;;;;;;;9.45;5.32;;;6.40;64.00;;;;;;4867837;28;114316;-79
2023/12/28 03:59:57;;;;;;;9.82;5.45;;;6.40;64.00;;;;;;4851437;28;115055;-80
2023/12/28 04:02:27;;;;;;;11.40;5.60;;;6.40;64.00;;;;;;4851483;28;116313;-80
2023/12/28 04:04:55;;;;;;;9.50;5.50;;;6.50;64.00;;;;;;4852078;28;114464;-80
2023/12/28 04:07:23;;;;;;;9.15;5.38;;;6.50;63.80;;;;;;4852163;28;114363;-80
2023/12/28 04:09:51;;;;;;;8.88;5.30;;;6.40;63.80;;;;;;4850776;28;115731;-81
2023/12/28 04:12:19;;;;;;;10.63;5.18;;;6.50;63.70;;;;;;4868672;28;114703;-81
2023/12/28 04:14:46;;;;;;;12.73;5.43;;;6.50;63.70;;;;;;4852041;28;114348;-80
2023/12/28 04:17:14;;;;;;;10.55;6.10;;;6.50;63.70;;;;;;4851754;28;114522;-81
2023/12/28 04:19:41;;;;;;;9.23;5.22;;;6.50;63.70;;;;;;4866624;28;115180;-81
2023/12/28 04:22:08;;;;;;;9.40;5.85;;;6.50;63.80;;;;;;4851265;28;114619;-81
2023/12/28 04:24:37;;;;;;;11.23;6.07;;;6.50;63.80;;;;;;4836036;28;114446;-81
2023/12/28 04:27:04;;;;;;;10.55;6.50;;;6.60;63.70;;;;;;4868126;28;114483;-81
2023/12/28 04:29:31;;;;;;;14.07;6.78;;;6.60;63.70;;;;;;4851089;28;115255;-81
2023/12/28 04:31:59;;;;;;;12.85;7.65;;;6.60;63.70;;;;;;4850076;28;115809;-81
2023/12/28 04:34:26;;;;;;;14.77;7.63;;;6.60;63.70;;;;;;4867064;28;114293;-81
2023/12/28 04:36:54;;;;;;;15.40;7.15;;;6.60;63.70;;;;;;4868805;28;116052;-81
2023/12/28 04:39:21;;;;;;;16.17;8.63;;;6.60;63.80;;;;;;4850675;28;115423;-81
2023/12/28 04:41:49;;;;;;;15.10;7.68;;;6.60;63.80;;;;;;4850440;28;116620;-81
2023/12/28 04:44:16;;;;;;;13.35;7.43;;;6.60;63.70;;;;;;4850994;28;114354;-81
2023/12/28 04:46:49;;;;;;;14.98;7.90;;;6.60;63.60;;;;;;4851272;28;114896;-81
2023/12/28 04:49:16;;;;;;;13.70;7.32;;;6.60;63.60;;;;;;4850742;28;116012;-81
2023/12/28 04:51:47;;;;;;;11.70;7.05;;;6.60;63.50;;;;;;4850539;28;114784;-81
2023/12/28 04:54:15;;;;;;;11.50;6.88;;;6.60;63.50;;;;;;4835665;28;114399;-81
2023/12/28 04:56:43;;;;;;;12.90;6.93;;;6.60;63.50;;;;;;4851276;28;114697;-81
2023/12/28 04:59:12;;;;;;;10.40;6.65;;;6.60;63.50;;;;;;4850334;28;115444;-81
2023/12/28 05:01:43;;;;;;;12.45;7.75;;;6.60;63.60;;;;;;4867882;28;114625;-81
2023/12/28 05:04:11;;;;;;;18.08;9.38;;;6.50;63.60;;;;;;4851022;28;114406;-81
2023/12/28 05:06:44;;;;;;;16.73;9.00;;;6.50;63.40;;;;;;4867973;28;114346;-81
2023/12/28 05:09:13;;;;;;;15.25;9.52;;;6.40;63.00;;;;;;4850042;28;115124;-81
2023/12/28 05:11:40;;;;;;;14.82;8.65;;;6.20;62.40;;;;;;4867501;28;115383;-81
2023/12/28 05:14:07;;;;;;;16.73;8.63;;;6.10;62.20;;;;;;4868124;28;114394;-81
2023/12/28 05:16:37;;;;;;;14.90;9.45;;;5.90;62.40;;;;;;4867111;28;114399;-81
2023/12/28 05:19:04;;;;;;;16.75;9.18;;;5.70;62.50;;;;;;4866019;28;115212;-82
2023/12/28 05:21:32;;;;;;;20.42;9.73;;;5.60;62.60;;;;;;4850608;28;115084;-81
2023/12/28 05:23:59;;;;;;;18.58;9.50;;;5.50;62.70;;;;;;4867854;28;114427;-81
2023/12/28 05:26:27;;;;;;;14.93;7.85;;;5.40;62.90;;;;;;4867863;28;114261;-81
2023/12/28 05:28:54;;;;;;;19.58;9.73;;;5.30;63.10;;;;;;4865223;28;115272;-81
2023/12/28 05:31:21;;;;;;;17.90;9.48;;;5.20;63.20;;;;;;4850249;28;114572;-81
2023/12/28 05:33:49;;;;;;;18.85;9.30;;;5.20;63.30;;;;;;4867292;28;114458;-81
2023/12/28 05:36:19;;;;;;;16.38;9.25;;;5.20;63.40;;;;;;4850882;28;114579;-80
2023/12/28 05:38:46;;;;;;;18.63;10.00;;;5.00;63.60;;;;;;4865655;28;115322;-81
2023/12/28 05:41:14;;;;;;;14.80;9.02;;;5.00;63.60;;;;;;4865172;28;114637;-81
2023/12/28 05:43:42;;;;;;;13.80;8.82;;;5.00;63.70;;;;;;4866840;28;114210;-81
2023/12/28 05:46:09;;;;;;;17.92;9.32;;;5.00;63.80;;;;;;4867628;28;114324;-81
2023/12/28 05:48:36;;;;;;;16.52;8.75;;;4.90;63.90;;;;;;4866923;28;115095;-81
2023/12/28 05:51:04;;;;;;;15.48;8.88;;;4.80;63.90;;;;;;4866929;28;114566;-81
2023/12/28 05:53:32;;;;;;;16.63;8.90;;;4.80;64.10;;;;;;4867481;28;114262;-81
2023/12/28 05:56:03;;;;;;;14.90;9.52;;;4.80;64.10;;;;;;4865693;28;114548;-81
2023/12/28 05:58:30;;;;;;;16.60;10.10;;;4.80;64.00;;;;;;4865758;28;115589;-81
2023/12/28 06:00:57;;;;;;;18.40;11.65;;;4.70;64.00;;;;;;4866536;28;114821;-81
2023/12/28 06:03:27;;;;;;;19.92;11.32;;;4.70;64.00;;;;;;4850495;28;114502;-81
2023/12/28 06:05:55;;;;;;;18.90;11.48;;;4.60;64.00;;;;;;4867023;28;114729;-81
2023/12/28 06:08:23;;;;;;;22.67;12.98;;;4.60;64.10;;;;;;4865289;28;115120;-81
2023/12/28 06:10:54;;;;;;;21.58;13.40;;;4.60;64.00;;;;;;4834296;28;116786;-81
2023/12/28 06:13:21;;;;;;;24.38;12.50;;;4.50;64.10;;;;;;4866967;28;114258;-81
2023/12/28 06:15:48;;;;;;;23.65;13.55;;;4.50;64.20;;;;;;4867374;28;114387;-81
2023/12/28 06:18:16;;;;;;;21.58;12.18;;;4.40;64.30;;;;;;4866345;28;115238;-80
2023/12/28 06:20:43;;;;;;;18.80;11.60;;;4.40;64.50;;;;;;4866423;28;114659;-81
2023/12/28 06:23:11;;;;;;;23.00;12.18;;;4.40;64.60;;;;;;4866375;28;114310;-81
2023/12/28 06:25:38;;;;;;;22.67;12.20;;;4.40;64.80;;;;;;4865767;28;114336;-81
2023/12/28 06:28:05;;;;;;;19.13;11.65;;;4.40;64.80;;;;;;4849383;28;115629;-81
2023/12/28 06:30:35;;;;;;;20.98;12.27;;;4.40;64.70;;;;;;4866100;28;115072;-81
2023/12/28 06:33:03;;;;;;;19.67;12.25;;;4.30;64.80;;;;;;4866066;28;114404;-81
2023/12/28 06:35:31;;;;;;;21.83;12.73;;;4.30;64.90;;;;;;4850113;28;114458;-81
2023/12/28 06:37:58;;;;;;;19.17;11.25;;;4.30;64.90;;;;;;4865966;28;115054;-81
2023/12/28 06:40:26;;;;;;;20.40;12.13;;;4.20;65.10;;;;;;4865162;28;116178;-80
2023/12/28 06:42:53;;;;;;;28.48;15.88;;;4.20;65.40;;;;;;4866811;28;114282;-80
2023/12/28 06:45:26;;;;;;;40.15;19.60;;;4.20;65.30;;;;;;4866843;28;114197;-81
2023/12/28 06:47:54;;;;;;;30.20;16.05;;;4.20;65.00;;;;;;4865929;28;115124;-81
2023/12/28 06:50:21;;;;;;;37.45;18.02;;;4.20;64.90;;;;;;4865319;28;114678;-81
2023/12/28 06:52:49;;;;;;;22.75;12.43;;;4.10;65.00;;;;;;4850201;28;114411;-82
2023/12/28 06:55:16;;;;;;;24.38;12.07;;;4.10;65.40;;;;;;4869075;28;114769;-82
2023/12/28 06:57:43;;;;;;;20.38;11.82;;;4.10;65.60;;;;;;4868061;28;115269;-82
2023/12/28 07:00:11;;;;;;;26.10;11.70;;;4.20;65.80;;;;;;4867732;28;114821;-81
2023/12/28 07:02:39;;;;;;;17.70;9.68;;;4.20;66.00;;;;;;4869168;28;114441;-82
2023/12/28 07:05:08;;;;;;;18.67;10.20;;;4.20;66.20;;;;;;4884614;28;114672;-82
2023/12/28 07:07:36;;;;;;;10.25;6.93;;;4.40;66.20;;;;;;4852156;28;118074;-81
2023/12/28 07:10:05;;;;;;;7.85;5.30;;;4.50;66.50;;;;;;4868282;28;114812;-81
2023/12/28 07:12:32;;;;;;;12.95;6.38;;;4.60;67.00;;;;;;4836810;28;114422;-81
2023/12/28 07:14:59;;;;;;;10.15;5.97;;;4.70;68.00;;;;;;4852817;28;114328;-81
2023/12/28 07:17:27;;;;;;;10.15;5.65;;;4.90;67.70;;;;;;4868900;28;115683;-81
2023/12/28 07:19:54;;;;;;;11.32;6.40;;;5.10;67.50;;;;;;4867896;28;114912;-81
2023/12/28 07:22:21;;;;;;;10.05;5.65;;;5.20;67.30;;;;;;4869838;28;114238;-81
2023/12/28 07:24:49;;;;;;;13.57;6.43;;;5.40;67.20;;;;;;4883335;28;114905;-82
2023/12/28 07:27:16;;;;;;;11.60;6.43;;;5.60;67.00;;;;;;4852032;28;115174;-82
2023/12/28 07:29:43;;;;;;;10.65;5.97;;;5.60;66.70;;;;;;4869388;28;114719;-82
2023/12/28 07:32:11;;;;;;;12.88;6.03;;;5.80;66.50;;;;;;4868230;28;114472;-81
2023/12/28 07:34:38;;;;;;;9.27;6.35;;;5.90;66.40;;;;;;4852950;28;114567;-80
2023/12/28 07:37:06;;;;;;;9.70;5.78;;;6.10;66.20;;;;;;4868224;28;115099;-80
2023/12/28 07:39:34;;;;;;;9.48;5.70;;;6.20;65.70;;;;;;4867722;28;116016;-80
2023/12/28 07:42:01;;;;;;;9.93;5.40;;;6.30;65.40;;;;;;4852382;28;114858;-81
2023/12/28 07:44:28;;;;;;;11.77;5.82;;;6.40;65.10;;;;;;4869355;28;114332;-81
2023/12/28 07:46:56;;;;;;;9.65;6.47;;;6.50;64.80;;;;;;4869176;28;115219;-80
2023/12/28 07:49:23;;;;;;;7.57;5.05;;;6.60;64.60;;;;;;4868616;28;114696;-81
2023/12/28 07:51:51;;;;;;;8.93;4.95;;;6.70;64.30;;;;;;4869281;28;114232;-80
2023/12/28 07:54:18;;;;;;;11.93;5.35;;;6.70;63.90;;;;;;4852911;28;114240;-81
2023/12/28 07:56:46;;;;;;;10.68;5.80;;;6.70;63.90;;;;;;4867404;28;115258;-80
2023/12/28 07:59:13;;;;;;;10.07;5.53;;;6.80;63.40;;;;;;4851616;28;114633;-80
2023/12/28 08:01:40;;;;;;;9.70;5.97;;;6.80;63.40;;;;;;4868861;28;114224;-82
2023/12/28 08:04:08;;;;;;;9.40;6.20;;;6.90;63.10;;;;;;4868187;28;114454;-80
2023/12/28 08:06:35;;;;;;;9.43;6.13;;;7.00;63.10;;;;;;4850566;28;117945;-80
2023/12/28 08:09:03;;;;;;;11.13;6.10;;;7.10;62.70;;;;;;4868169;28;114693;-81
2023/12/28 08:11:31;;;;;;;10.20;5.28;;;7.20;62.80;;;;;;4867896;28;114553;-80
2023/12/28 08:13:58;;;;;;;10.45;5.90;;;7.20;62.40;;;;;;4836721;28;114649;-81
2023/12/28 08:16:26;;;;;;;9.68;6.53;;;7.30;62.20;;;;;;4866623;28;116323;-81
2023/12/28 08:18:54;;;;;;;10.90;5.63;;;7.30;62.10;;;;;;4866617;28;114591;-80
2023/12/28 08:21:22;;;;;;;11.50;5.95;;;7.40;62.00;;;;;;4852065;28;114405;-80
2023/12/28 08:23:49;;;;;;;10.50;6.15;;;7.50;61.90;;;;;;4883437;28;114384;-81
2023/12/28 08:26:16;;;;;;;11.75;6.55;;;7.60;61.30;;;;;;4867017;28;116258;-81
2023/12/28 08:28:43;;;;;;;8.93;5.70;;;7.70;61.40;;;;;;4868149;28;114675;-80
2023/12/28 08:31:12;;;;;;;9.18;5.60;;;7.70;61.40;;;;;;4851879;28;114422;-82
2023/12/28 08:33:39;;;;;;;10.52;6.13;;;7.80;61.30;;;;;;4868114;28;114358;-80
2023/12/28 08:36:08;;;;;;;10.15;6.03;;;7.90;61.10;;;;;;4854743;28;115098;-81
2023/12/28 08:38:35;;;;;;;10.45;7.15;;;7.90;60.90;;;;;;4868816;28;114658;-81
2023/12/28 08:41:08;;;;;;;9.07;5.93;;;8.00;60.80;;;;;;4868553;28;114874;-82
2023/12/28 08:43:36;;;;;;;10.63;5.68;;;8.10;60.40;;;;;;4869194;28;114272;-81
2023/12/28 08:46:07;;;;;;;10.30;5.78;;;8.20;60.30;;;;;;4850457;28;117844;-81
2023/12/28 08:48:34;;;;;;;9.88;5.43;;;8.20;60.10;;;;;;4835473;28;114725;-81
2023/12/28 08:51:02;;;;;;;8.65;5.47;;;8.20;59.90;;;;;;4868042;28;114338;-81
2023/12/28 08:53:29;;;;;;;9.80;5.78;;;8.30;59.70;;;;;;4851298;28;114447;-81
2023/12/28 08:55:56;;;;;;;9.55;5.85;;;8.30;59.10;;;;;;4850781;28;115054;-83
2023/12/28 08:58:24;;;;;;;9.00;5.43;;;8.30;59.20;;;;;;4834463;28;117589;-81
2023/12/28 09:00:51;;;;;;;9.95;6.00;;;8.30;59.30;;;;;;4851332;28;114352;-81
2023/12/28 09:03:19;;;;;;;8.65;5.80;;;8.30;59.20;;;;;;4868221;28;114407;-81
2023/12/28 09:05:49;;;;;;;8.95;5.72;;;8.40;59.20;;;;;;4866385;28;115199;-81
2023/12/28 09:08:16;;;;;;;10.27;5.35;;;8.40;59.20;;;;;;4867807;28;114695;-81
2023/12/28 09:10:43;;;;;;;11.00;5.60;;;8.40;58.80;;;;;;4868155;28;114573;-81
2023/12/28 09:13:16;;;;;;;8.57;5.30;;;8.40;59.10;;;;;;4866928;28;114370;-81
2023/12/28 09:15:43;;;;;;;11.85;6.68;;;8.50;58.90;;;;;;4850170;28;115090;-81
2023/12/28 09:18:11;;;;;;;10.65;5.68;;;8.50;59.00;;;;;;4849795;28;115320;-82
2023/12/28 09:20:38;;;;;;;12.32;6.88;;;8.50;59.10;;;;;;4851207;28;114297;-80
2023/12/28 09:23:06;;;;;;;8.27;5.47;;;8.50;58.80;;;;;;4867584;28;114418;-80
2023/12/28 09:25:33;;;;;;;13.98;7.80;;;8.50;58.80;;;;;;4866864;28;115157;-80
2023/12/28 09:28:00;;;;;;;12.18;6.68;;;8.60;58.80;;;;;;4834438;28;117524;-80
2023/12/28 09:30:28;;;;;;;10.98;5.70;;;8.60;58.60;;;;;;4867915;28;114372;-80
2023/12/28 09:33:01;;;;;;;10.20;6.13;;;8.70;58.50;;;;;;4867515;28;114341;-81
2023/12/28 09:35:29;;;;;;;13.20;6.47;;;8.70;58.60;;;;;;4866668;28;116854;-81
2023/12/28 09:37:56;;;;;;;8.20;5.43;;;8.70;58.50;;;;;;4866699;28;114667;-83
2023/12/28 09:40:25;;;;;;;10.57;5.65;;;8.80;58.20;;;;;;4866267;28;114914;-82
2023/12/28 09:43:06;;;;;;;10.77;5.68;;;8.80;58.20;;;;;;4866232;28;114360;-81
2023/12/28 09:45:37;;;;;;;11.38;5.82;;;8.80;58.10;;;;;;4850142;28;115363;-81
2023/12/28 09:48:06;;;;;;;9.95;5.43;;;8.80;58.10;;;;;;4866464;28;115648;-82
2023/12/28 09:50:41;;;;;;;9.02;5.45;;;8.90;58.00;;;;;;4866454;28;114410;-81
2023/12/28 09:53:09;;;;;;;10.07;5.53;;;8.90;57.90;;;;;;4866696;28;114494;-81
2023/12/28 09:55:36;;;;;;;10.25;5.75;;;8.90;57.80;;;;;;4849716;28;116277;-81
2023/12/28 09:58:07;;;;;;;10.90;5.82;;;8.90;57.90;;;;;;4865880;28;115953;-82
2023/12/28 10:00:37;;;;;;;10.85;6.10;;;8.90;58.00;;;;;;4849708;28;114377;-81
2023/12/28 10:03:04;;;;;;;11.88;6.50;;;8.90;58.00;;;;;;4850539;28;114627;-80
2023/12/28 10:05:32;;;;;;;10.95;6.28;;;9.00;57.80;;;;;;4849450;28;115555;-82
2023/12/28 10:07:59;;;;;;;11.43;6.18;;;9.10;57.70;;;;;;4864609;28;117661;-81
2023/12/28 10:10:29;;;;;;;13.68;6.82;;;9.10;57.70;;;;;;4850779;28;114369;-80
2023/12/28 10:12:56;;;;;;;12.65;7.32;;;9.10;57.40;;;;;;4866194;28;114336;-81
2023/12/28 10:15:25;;;;;;;13.07;6.50;;;9.20;57.30;;;;;;4849840;28;115936;-81
2023/12/28 10:17:53;;;;;;;12.40;6.88;;;9.20;57.40;;;;;;4866743;28;114662;-82
2023/12/28 10:20:20;;;;;;;9.90;6.53;;;9.20;57.30;;;;;;4867498;28;114582;-82
2023/12/28 10:22:47;;;;;;;13.25;6.32;;;9.20;57.30;;;;;;4867744;28;114626;-81
2023/12/28 10:25:17;;;;;;;12.88;5.53;;;9.20;57.20;;;;;;4866551;28;115229;-82
2023/12/28 10:27:45;;;;;;;11.55;6.32;;;9.30;56.80;;;;;;4850280;28;114570;-81
2023/12/28 10:30:12;;;;;;;12.82;6.82;;;9.20;56.70;;;;;;4872944;28;114581;-82
2023/12/28 10:32:41;;;;;;;9.68;5.72;;;9.30;56.90;;;;;;4872230;28;114334;-81
2023/12/28 10:35:09;;;;;;;12.27;6.47;;;9.30;56.40;;;;;;4871796;28;115312;-81
2023/12/28 10:37:36;;;;;;;10.70;6.00;;;9.30;56.50;;;;;;4872274;28;114602;-81
2023/12/28 10:40:08;;;;;;;11.60;6.25;;;9.30;56.60;;;;;;4856453;28;114581;-81
2023/12/28 10:42:57;;;;;;;12.27;6.50;;;9.40;56.30;;;;;;4872113;28;114379;-81
2023/12/28 10:45:25;;;;;;;9.45;6.47;;;9.50;55.60;;;;;;4855295;28;115478;-80
2023/12/28 10:48:10;;;;;;;12.95;7.00;;;9.40;55.80;;;;;;4872743;28;115173;-81
2023/12/28 10:50:41;;;;;;;12.38;7.03;;;9.50;56.10;;;;;;4873093;28;114302;-80
2023/12/28 10:53:39;;;;;;;12.10;7.15;;;9.50;55.90;;;;;;4871584;28;114614;-81
2023/12/28 10:56:31;;;;;;;11.13;6.20;;;9.60;56.10;;;;;;4838994;28;117813;-81
2023/12/28 10:59:21;;;;;;;12.27;6.10;;;9.50;56.00;;;;;;4869891;28;114822;-82
2023/12/28 11:01:51;;;;;;;11.30;6.30;;;9.50;56.10;;;;;;4871967;28;114324;-81
2023/12/28 11:04:31;;;;;;;8.73;5.60;;;9.60;55.70;;;;;;4871832;28;114691;-81
2023/12/28 11:06:59;;;;;;;10.65;5.95;;;9.70;55.50;;;;;;4871017;28;115128;-81
2023/12/28 11:09:27;;;;;;;10.80;6.00;;;9.70;55.50;;;;;;4855067;28;114603;-80
2023/12/28 11:11:54;;;;;;;11.88;6.68;;;9.70;55.40;;;;;;4856025;28;114505;-80
2023/12/28 11:14:22;;;;;;;14.68;6.20;;;9.70;55.30;;;;;;4872012;28;114610;-81
2023/12/28 11:16:49;;;;;;;11.35;7.25;;;9.70;55.30;;;;;;4855449;28;115237;-81
2023/12/28 11:19:16;;;;;;;13.75;7.05;;;9.70;55.20;;;;;;4839245;28;118316;-82
2023/12/28 11:21:44;;;;;;;14.75;6.80;;;9.70;55.30;;;;;;4870964;28;114746;-82
2023/12/28 11:24:12;;;;;;;10.43;6.57;;;9.70;55.10;;;;;;4855258;28;114701;-81
2023/12/28 11:26:39;;;;;;;15.27;9.00;;;9.80;55.20;;;;;;4839407;28;115212;-80
2023/12/28 11:29:07;;;;;;;11.05;6.70;;;9.80;55.10;;;;;;4855082;28;114690;-81
2023/12/28 11:31:34;;;;;;;11.23;6.43;;;9.90;54.80;;;;;;4872507;28;114647;-81
2023/12/28 11:34:04;;;;;;;12.07;6.75;;;9.90;54.70;;;;;;4872463;28;114356;-82
2023/12/28 11:36:43;;;;;;;14.02;8.25;;;10.00;54.60;;;;;;4871710;28;115234;-80
2023/12/28 11:39:10;;;;;;;10.02;6.13;;;10.00;54.10;;;;;;4854866;28;114738;-80
2023/12/28 11:41:38;;;;;;;12.68;6.68;;;10.00;54.10;;;;;;4851656;28;114442;-80
2023/12/28 11:44:06;;;;;;;9.18;5.93;;;10.10;53.90;;;;;;4869312;28;114668;-82
2023/12/28 11:46:37;;;;;;;9.63;5.57;;;10.10;53.60;;;;;;4868029;28;115136;-82
2023/12/28 11:49:09;;;;;;;10.70;5.78;;;10.20;53.40;;;;;;4868295;28;115927;-82
2023/12/28 11:51:38;;;;;;;11.48;6.85;;;10.20;53.20;;;;;;4852701;28;114166;-82
2023/12/28 11:54:06;;;;;;;11.90;6.30;;;10.20;53.10;;;;;;4837018;28;114642;-82
2023/12/28 11:56:33;;;;;;;12.13;7.20;;;10.30;53.10;;;;;;4867103;28;115217;-81
2023/12/28 11:59:01;;;;;;;12.00;5.80;;;10.20;53.00;;;;;;4851418;28;114627;-81
2023/12/28 12:01:28;;;;;;;11.63;6.60;;;10.20;52.50;;;;;;4852375;28;114597;-81
2023/12/28 12:03:56;;;;;;;10.70;6.60;;;10.20;52.70;;;;;;4868475;28;114612;-81
2023/12/28 12:06:24;;;;;;;10.27;6.25;;;10.10;52.90;;;;;;4875198;28;115183;-81
2023/12/28 12:08:51;;;;;;;10.85;7.28;;;10.00;52.50;;;;;;4869319;28;114948;-81
2023/12/28 12:11:18;;;;;;;9.45;5.70;;;10.00;53.00;;;;;;4867589;28;114446;-80
2023/12/28 12:13:46;;;;;;;9.75;6.40;;;10.00;52.70;;;;;;4821322;28;114371;-81
2023/12/28 12:16:16;;;;;;;10.90;6.15;;;10.00;53.00;;;;;;4868404;28;115275;-82
2023/12/28 12:18:47;;;;;;;11.70;6.60;;;10.00;53.30;;;;;;4851380;28;114673;-83
2023/12/28 12:21:15;;;;;;;15.60;7.97;;;10.00;53.40;;;;;;4867877;28;114662;-81
2023/12/28 12:23:42;;;;;;;12.48;7.47;;;10.00;53.50;;;;;;4867753;28;114408;-81
2023/12/28 12:26:11;;;;;;;9.77;7.15;;;10.10;53.60;;;;;;4856097;28;115295;-81
2023/12/28 12:28:38;;;;;;;10.73;7.20;;;10.00;53.50;;;;;;4849606;29;114619;-81
2023/12/28 12:31:08;;;;;;;13.82;8.23;;;10.10;53.50;;;;;;4833647;29;114333;-81
2023/12/28 12:33:36;;;;;;;13.35;6.82;;;10.20;53.60;;;;;;4849056;29;114381;-81
2023/12/28 12:36:05;;;;;;;11.38;6.93;;;10.20;53.50;;;;;;4847652;29;115879;-81
2023/12/28 12:38:33;;;;;;;11.85;6.70;;;10.20;53.20;;;;;;4832901;29;114947;-81
2023/12/28 12:41:00;;;;;;;11.80;6.97;;;10.30;53.00;;;;;;4849988;29;114480;-82
2023/12/28 12:43:27;;;;;;;11.18;6.13;;;10.30;53.10;;;;;;4832609;29;114574;-81
2023/12/28 12:45:55;;;;;;;11.20;6.60;;;10.40;53.00;;;;;;4833412;29;115353;-81